Time,TemperatureF,DewpointF,PressureIn,WindDirection,WindDirectionDegrees,WindSpeedMPH,WindSpeedGustMPH,Humidity,HourlyPrecipIn,Conditions,Clouds,dailyrainin,SolarRadiationWatts/m^2,SoftwareType,DateUTC
2013-02-21 00:12:00,28.0,16.0,29.84,NW,317,6.0,19.0,60,0.00,,,0.00,0,weatherlink.com 1.10,2013-02-21 05:12:00,
2013-02-21 00:27:00,27.9,16.0,29.84,West,272,11.0,17.0,61,0.00,,,0.00,0,weatherlink.com 1.10,2013-02-21 05:27:00,
2013-02-21 00:42:00,27.8,16.0,29.85,West,279,11.0,15.0,61,0.00,,,0.00,0,weatherlink.com 1.10,2013-02-21 05:42:00,
2013-02-21 00:57:00,27.6,16.0,29.85,WNW,292,5.0,11.0,62,0.00,,,0.00,0,weatherlink.com 1.10,2013-02-21 05:57:00,
2013-02-21 01:12:00,27.5,16.0,29.86,WNW,302,7.0,12.0,62,0.00,,,0.00,0,weatherlink.com 1.10,2013-02-21 06:12:00,
2013-02-21 01:27:00,27.5,16.0,29.86,WSW,243,7.0,15.0,62,0.00,,,0.00,0,weatherlink.com 1.10,2013-02-21 06:27:00,
2013-02-21 01:42:00,27.6,16.0,29.86,WNW,298,7.0,11.0,62,0.00,,,0.00,0,weatherlink.com 1.10,2013-02-21 06:42:00,
2013-02-21 01:57:00,27.6,16.0,29.85,WNW,291,2.0,13.0,62,0.00,,,0.00,0,weatherlink.com 1.10,2013-02-21 06:57:00,
2013-02-21 02:12:00,27.8,16.0,29.85,West,281,4.0,11.0,62,0.00,,,0.00,0,weatherlink.com 1.10,2013-02-21 07:12:00,
2013-02-21 02:27:00,27.9,16.0,29.85,WSW,257,8.0,13.0,60,0.00,,,0.00,0,weatherlink.com 1.10,2013-02-21 07:27:00,
2013-02-21 02:42:00,28.0,16.0,29.85,WNW,298,3.0,14.0,60,0.00,,,0.00,0,weatherlink.com 1.10,2013-02-21 07:42:00,
2013-02-21 02:57:00,28.1,15.0,29.85,WNW,294,10.0,14.0,59,0.00,,,0.00,0,weatherlink.com 1.10,2013-02-21 07:57:00,
2013-02-21 03:12:00,28.1,15.0,29.86,WSW,238,3.0,10.0,59,0.00,,,0.00,0,weatherlink.com 1.10,2013-02-21 08:12:00,
2013-02-21 03:27:00,28.0,15.0,29.85,WNW,293,5.0,9.0,59,0.00,,,0.00,0,weatherlink.com 1.10,2013-02-21 08:27:00,
2013-02-21 03:42:00,27.9,14.0,29.85,WNW,298,7.0,17.0,57,0.00,,,0.00,0,weatherlink.com 1.10,2013-02-21 08:42:00,
2013-02-21 03:57:00,27.7,14.0,29.85,WNW,296,7.0,15.0,57,0.00,,,0.00,0,weatherlink.com 1.10,2013-02-21 08:57:00,
2013-02-21 04:12:00,27.4,14.0,29.86,West,259,2.0,16.0,58,0.00,,,0.00,0,weatherlink.com 1.10,2013-02-21 09:12:00,
2013-02-21 04:27:00,27.2,14.0,29.86,WNW,285,5.0,13.0,59,0.00,,,0.00,0,weatherlink.com 1.10,2013-02-21 09:27:00,
2013-02-21 04:42:00,27.1,14.0,29.86,WSW,252,4.0,12.0,59,0.00,,,0.00,0,weatherlink.com 1.10,2013-02-21 09:42:00,
2013-02-21 04:57:00,26.9,15.0,29.86,WNW,286,8.0,12.0,60,0.00,,,0.00,0,weatherlink.com 1.10,2013-02-21 09:57:00,
2013-02-21 05:12:00,26.7,14.0,29.86,West,267,4.0,18.0,60,0.00,,,0.00,0,weatherlink.com 1.10,2013-02-21 10:12:00,
2013-02-21 05:27:00,26.8,14.0,29.86,WNW,285,5.0,17.0,59,0.00,,,0.00,0,weatherlink.com 1.10,2013-02-21 10:27:00,
2013-02-21 05:42:00,26.7,14.0,29.86,West,271,6.0,17.0,59,0.00,,,0.00,0,weatherlink.com 1.10,2013-02-21 10:42:00,
2013-02-21 05:57:00,26.5,14.0,29.87,WNW,286,5.0,13.0,59,0.00,,,0.00,0,weatherlink.com 1.10,2013-02-21 10:57:00,
2013-02-21 06:13:00,26.3,14.0,29.87,West,265,6.0,15.0,59,0.00,,,0.00,0,weatherlink.com 1.10,2013-02-21 11:13:00,
2013-02-21 06:28:00,26.2,14.0,29.87,WNW,292,14.0,17.0,59,0.00,,,0.00,0,weatherlink.com 1.10,2013-02-21 11:28:00,
2013-02-21 06:43:00,26.0,13.0,29.88,West,273,9.0,18.0,58,0.00,,,0.00,9,weatherlink.com 1.10,2013-02-21 11:43:00,
2013-02-21 06:58:00,25.9,12.0,29.88,West,271,4.0,19.0,57,0.00,,,0.00,19,weatherlink.com 1.10,2013-02-21 11:58:00,
2013-02-21 07:13:00,25.9,12.0,29.88,WNW,290,4.0,17.0,57,0.00,,,0.00,35,weatherlink.com 1.10,2013-02-21 12:13:00,
2013-02-21 07:28:00,25.8,12.0,29.89,WNW,296,8.0,15.0,57,0.00,,,0.00,104,weatherlink.com 1.10,2013-02-21 12:28:00,
2013-02-21 07:43:00,26.4,12.0,29.89,West,259,13.0,15.0,55,0.00,,,0.00,262,weatherlink.com 1.10,2013-02-21 12:43:00,
2013-02-21 07:58:00,26.5,12.0,29.89,WNW,297,12.0,15.0,55,0.00,,,0.00,114,weatherlink.com 1.10,2013-02-21 12:58:00,
2013-02-21 08:13:00,26.4,12.0,29.90,WNW,293,2.0,19.0,55,0.00,,,0.00,127,weatherlink.com 1.10,2013-02-21 13:13:00,
2013-02-21 08:28:00,26.3,12.0,29.89,WNW,290,8.0,21.0,54,0.00,,,0.00,162,weatherlink.com 1.10,2013-02-21 13:28:00,
2013-02-21 08:43:00,26.2,11.0,29.89,WNW,292,5.0,20.0,53,0.00,,,0.00,200,weatherlink.com 1.10,2013-02-21 13:43:00,
2013-02-21 08:58:00,26.6,11.0,29.88,North,355,12.0,22.0,53,0.00,,,0.00,396,weatherlink.com 1.10,2013-02-21 13:58:00,
2013-02-21 09:13:00,27.1,11.0,29.88,West,269,7.0,19.0,52,0.00,,,0.00,448,weatherlink.com 1.10,2013-02-21 14:13:00,
2013-02-21 09:28:00,27.3,11.0,29.88,NW,304,15.0,20.0,51,0.00,,,0.00,483,weatherlink.com 1.10,2013-02-21 14:28:00,
2013-02-21 09:43:00,27.3,11.0,29.88,West,271,17.0,21.0,51,0.00,,,0.00,517,weatherlink.com 1.10,2013-02-21 14:43:00,
2013-02-21 09:58:00,28.0,11.0,29.88,NW,313,9.0,21.0,50,0.00,,,0.00,550,weatherlink.com 1.10,2013-02-21 14:58:00,
2013-02-21 10:13:00,28.5,11.0,29.88,WSW,248,9.0,20.0,49,0.00,,,0.00,577,weatherlink.com 1.10,2013-02-21 15:13:00,
2013-02-21 10:28:00,28.8,12.0,29.88,NW,316,10.0,16.0,49,0.00,,,0.00,621,weatherlink.com 1.10,2013-02-21 15:28:00,
2013-02-21 10:43:00,29.4,11.0,29.88,NNW,336,5.0,19.0,47,0.00,,,0.00,622,weatherlink.com 1.10,2013-02-21 15:43:00,
2013-02-21 10:58:00,29.4,11.0,29.88,NNW,330,6.0,20.0,47,0.00,,,0.00,636,weatherlink.com 1.10,2013-02-21 15:58:00,
2013-02-21 11:13:00,29.8,11.0,29.88,NNW,337,7.0,19.0,46,0.00,,,0.00,649,weatherlink.com 1.10,2013-02-21 16:13:00,
2013-02-21 11:28:00,30.3,12.0,29.88,NNW,333,10.0,19.0,46,0.00,,,0.00,661,weatherlink.com 1.10,2013-02-21 16:28:00,
2013-02-21 11:43:00,30.3,12.0,29.88,WNW,288,8.0,23.0,46,0.00,,,0.00,664,weatherlink.com 1.10,2013-02-21 16:43:00,
2013-02-21 11:59:00,31.0,12.0,29.87,NW,325,11.0,20.0,45,0.00,,,0.00,670,weatherlink.com 1.10,2013-02-21 16:59:00,
2013-02-21 12:14:00,31.4,12.0,29.87,NW,305,9.0,24.0,45,0.00,,,0.00,684,weatherlink.com 1.10,2013-02-21 17:14:00,
2013-02-21 12:29:00,31.2,12.0,29.88,WNW,284,10.0,18.0,45,0.00,,,0.00,255,weatherlink.com 1.10,2013-02-21 17:29:00,
2013-02-21 12:44:00,31.0,12.0,29.88,WNW,289,9.0,22.0,45,0.00,,,0.00,128,weatherlink.com 1.10,2013-02-21 17:44:00,
2013-02-21 12:59:00,31.8,13.0,29.88,West,270,14.0,18.0,46,0.00,,,0.00,199,weatherlink.com 1.10,2013-02-21 17:59:00,
2013-02-21 13:14:00,32.4,13.0,29.88,NNW,330,17.0,18.0,45,0.00,,,0.00,631,weatherlink.com 1.10,2013-02-21 18:14:00,
2013-02-21 13:29:00,32.2,12.0,29.88,NW,310,12.0,21.0,44,0.00,,,0.00,603,weatherlink.com 1.10,2013-02-21 18:29:00,
2013-02-21 13:44:00,32.6,13.0,29.88,NW,309,19.0,21.0,44,0.00,,,0.00,577,weatherlink.com 1.10,2013-02-21 18:44:00,
2013-02-21 13:59:00,32.5,13.0,29.88,NNW,333,9.0,18.0,44,0.00,,,0.00,555,weatherlink.com 1.10,2013-02-21 18:59:00,
2013-02-21 14:14:00,33.0,14.0,29.89,NW,323,14.0,18.0,45,0.00,,,0.00,517,weatherlink.com 1.10,2013-02-21 19:14:00,
2013-02-21 14:29:00,33.1,13.0,29.89,NW,321,7.0,20.0,44,0.00,,,0.00,482,weatherlink.com 1.10,2013-02-21 19:29:00,
2013-02-21 14:44:00,33.0,14.0,29.90,WNW,291,8.0,22.0,45,0.00,,,0.00,448,weatherlink.com 1.10,2013-02-21 19:44:00,
2013-02-21 14:59:00,32.8,13.0,29.91,WNW,294,8.0,21.0,44,0.00,,,0.00,510,weatherlink.com 1.10,2013-02-21 19:59:00,
2013-02-21 15:14:00,33.2,13.0,29.91,NW,312,15.0,19.0,44,0.00,,,0.00,220,weatherlink.com 1.10,2013-02-21 20:14:00,
2013-02-21 15:29:00,32.4,14.0,29.93,North,350,14.0,24.0,46,0.00,,,0.00,165,weatherlink.com 1.10,2013-02-21 20:29:00,
2013-02-21 15:44:00,32.6,14.0,29.93,NNW,333,4.0,18.0,47,0.00,,,0.00,172,weatherlink.com 1.10,2013-02-21 20:44:00,
2013-02-21 15:59:00,32.6,14.0,29.93,NW,321,20.0,20.0,47,0.00,,,0.00,114,weatherlink.com 1.10,2013-02-21 20:59:00,
2013-02-21 16:14:00,32.6,14.0,29.94,NNE,28,14.0,16.0,47,0.00,,,0.00,93,weatherlink.com 1.10,2013-02-21 21:14:00,
2013-02-21 16:29:00,32.4,15.0,29.96,NW,316,13.0,21.0,49,0.00,,,0.00,65,weatherlink.com 1.10,2013-02-21 21:29:00,
2013-02-21 16:44:00,32.1,14.0,29.97,NE,44,5.0,18.0,48,0.00,,,0.00,49,weatherlink.com 1.10,2013-02-21 21:44:00,
2013-02-21 16:59:00,31.7,14.0,29.98,NW,320,9.0,20.0,49,0.00,,,0.00,35,weatherlink.com 1.10,2013-02-21 21:59:00,
2013-02-21 17:14:00,31.2,14.0,30.00,North,11,11.0,23.0,50,0.00,,,0.00,12,weatherlink.com 1.10,2013-02-21 22:14:00,
2013-02-21 17:29:00,30.5,14.0,30.01,North,5,7.0,20.0,51,0.00,,,0.00,0,weatherlink.com 1.10,2013-02-21 22:29:00,
2013-02-21 17:44:00,30.1,14.0,30.02,NNW,333,11.0,19.0,52,0.00,,,0.00,0,weatherlink.com 1.10,2013-02-21 22:44:00,
2013-02-21 17:59:00,29.8,14.0,30.03,NNW,327,10.0,20.0,53,0.00,,,0.00,0,weatherlink.com 1.10,2013-02-21 22:59:00,
2013-02-21 18:14:00,29.5,14.0,30.05,NW,318,5.0,22.0,53,0.00,,,0.00,0,weatherlink.com 1.10,2013-02-21 23:14:00,
2013-02-21 18:29:00,29.4,15.0,30.06,NW,322,4.0,10.0,55,0.00,,,0.00,0,weatherlink.com 1.10,2013-02-21 23:29:00,
2013-02-21 18:44:00,29.1,14.0,30.07,NNE,28,5.0,22.0,54,0.00,,,0.00,0,weatherlink.com 1.10,2013-02-21 23:44:00,
2013-02-21 18:59:00,28.8,14.0,30.08,NNW,331,8.0,16.0,55,0.00,,,0.00,0,weatherlink.com 1.10,2013-02-21 23:59:00,
2013-02-21 19:14:00,28.3,14.0,30.09,NNW,338,16.0,21.0,55,0.00,,,0.00,0,weatherlink.com 1.10,2013-02-22 00:14:00,
2013-02-21 19:29:00,28.0,14.0,30.10,NW,315,7.0,20.0,57,0.00,,,0.00,0,weatherlink.com 1.10,2013-02-22 00:29:00,
2013-02-21 19:44:00,27.8,14.0,30.11,North,355,5.0,18.0,57,0.00,,,0.00,0,weatherlink.com 1.10,2013-02-22 00:44:00,
2013-02-21 19:59:00,27.6,14.0,30.12,NW,311,7.0,16.0,58,0.00,,,0.00,0,weatherlink.com 1.10,2013-02-22 00:59:00,
2013-02-21 20:14:00,27.4,15.0,30.13,NNE,15,5.0,14.0,59,0.00,,,0.00,0,weatherlink.com 1.10,2013-02-22 01:14:00,
2013-02-21 20:29:00,27.3,15.0,30.14,NNW,338,10.0,14.0,60,0.00,,,0.00,0,weatherlink.com 1.10,2013-02-22 01:29:00,
2013-02-21 20:45:00,27.4,15.0,30.14,NW,325,9.0,15.0,61,0.00,,,0.00,0,weatherlink.com 1.10,2013-02-22 01:45:00,
2013-02-21 21:00:00,27.4,15.0,30.16,NNW,329,4.0,14.0,61,0.00,,,0.00,0,weatherlink.com 1.10,2013-02-22 02:00:00,
2013-02-21 21:15:00,27.1,16.0,30.17,North,355,8.0,14.0,62,0.00,,,0.00,0,weatherlink.com 1.10,2013-02-22 02:15:00,
2013-02-21 21:30:00,27.0,15.0,30.17,NW,325,8.0,15.0,62,0.00,,,0.00,0,weatherlink.com 1.10,2013-02-22 02:30:00,
2013-02-21 21:45:00,27.0,16.0,30.17,NW,326,8.0,14.0,63,0.00,,,0.00,0,weatherlink.com 1.10,2013-02-22 02:45:00,
2013-02-21 22:00:00,27.2,16.0,30.18,NW,317,6.0,15.0,63,0.00,,,0.00,0,weatherlink.com 1.10,2013-02-22 03:00:00,
2013-02-21 22:15:00,27.0,16.0,30.18,NW,322,5.0,13.0,64,0.00,,,0.00,0,weatherlink.com 1.10,2013-02-22 03:15:00,
2013-02-21 22:30:00,27.0,16.0,30.18,North,10,6.0,14.0,64,0.00,,,0.00,0,weatherlink.com 1.10,2013-02-22 03:30:00,
2013-02-21 23:00:00,26.8,16.0,30.20,NW,308,5.0,14.0,65,0.00,,,0.00,0,weatherlink.com 1.10,2013-02-22 04:00:00,
2013-02-21 23:15:00,26.8,17.0,30.22,NW,325,7.0,10.0,66,0.00,,,0.00,0,weatherlink.com 1.10,2013-02-22 04:15:00,
2013-02-21 23:30:00,26.8,17.0,30.23,NNW,343,4.0,13.0,66,0.00,,,0.00,0,weatherlink.com 1.10,2013-02-22 04:30:00,
2013-02-21 23:45:00,26.9,17.0,30.23,NW,316,7.0,13.0,66,0.00,,,0.00,0,weatherlink.com 1.10,2013-02-22 04:45:00,